Impacts METAR Board
IDs:

KELA - Eagle Lake Arpt, TX, US

Updated at: 0100 UTC 01 Nov 2020
Potential Impact None Slight Moderate High
Time 31/13Z 31/14Z 31/15Z 31/16Z 31/17Z 31/18Z 31/19Z 31/20Z 31/21Z 31/22Z 31/23Z 01/00Z 01/01Z
Temp42 49 58 65 68 70 73 74 74 75 73 62 58
Dewpt42 47 51 53 50 50 49 49 46 49 49 52 52
Altim30.23 30.24 30.25 30.25 30.23 30.21 30.17 30.15 30.12 30.11 30.10 30.12 30.13
VIS10 10 10 10 10 10 10 10 10 10 10 10 10
CIG-- -- -- -- -- -- -- -- -- -- -- -- --
CoverCLRCLRCLRCLRCLRCLRCLRCLRCLRCLRCLRCLRCLR
FltCatVFRVFRVFRVFRVFRVFRVFRVFRVFRVFRVFRVFRVFR
WX--------------------------
WDir00000200024001401303000
WSpd0 0 0 0 0 3 0 4 0 4 3 3 0
WGst-- -- -- -- -- -- -- -- -- -- -- -- --
Raw hourly METARs
KELA 311255Z AUTO 00000KT 10SM CLR 06/05 A3023 RMK AO2 T00580053
KELA 311355Z AUTO 00000KT 10SM CLR 10/08 A3024 RMK AO2 T00960082
KELA 311455Z AUTO 00000KT 10SM CLR 15/11 A3025 RMK AO2 T01470106
KELA 311555Z AUTO 00000KT 10SM CLR 18/12 A3025 RMK AO2 T01820115
KELA 311655Z AUTO 00000KT 10SM CLR 20/10 A3023 RMK AO2 T02020102
KELA 311755Z AUTO 20003KT 10SM CLR 21/10 A3021 RMK AO2 T02130100 10213 20056
KELA 311855Z AUTO 00000KT 10SM CLR 23/09 A3017 RMK AO2 T02250094
KELA 311955Z AUTO 24004KT 10SM CLR 23/09 A3015 RMK AO2 T02340094
KELA 312055Z AUTO 00000KT 10SM CLR 24/08 A3012 RMK AO2 T02350076
KELA 312155Z AUTO 14004KT 10SM CLR 24/09 A3011 RMK AO2 T02400094
KELA 312255Z AUTO 13003KT 10SM CLR 23/10 A3010 RMK AO2 T02260096
KELA 312355Z AUTO 30003KT 10SM CLR 17/11 A3012 RMK AO2 T01690112 10240 20169
KELA 010055Z AUTO 00000KT 10SM CLR 14/11 A3013 RMK AO2 T01420111